Mt New Conquest — V7GG4 — position and weather

sailwx.info

Track history (hours):
 
Tides and Currents Weather Stations Pressure Air Temp Water Temp Dewpoint Dewpoint Depression Visibility Wind Speed Wind Dir Waves Ship Positions

Mt New Conquest

Last reported at 2016-Feb-11 08:24 UTC. Time now 2016-Feb-11 19:12 UTC.
Position N 50°50' W 001°20'.

Length 228 m; draft 10.7 m.

Type: Tanker. MMSI: 538002089.

Date/timePositionNaut miles runAvg speedWind from/ knotsBaromVisibWave heightAir tempDewpointWater temp
2016-Feb-11 08:24N 50°50' W 001°20'0 0.0
2016-Feb-11 07:12N 50°50' W 001°20'0 0.0
2016-Feb-11 06:33N 50°50' W 001°20'0 0.0
2016-Feb-11 05:33N 50°50' W 001°20'0 0.0
2016-Feb-11 01:21N 50°50' W 001°20'0 0.0
2016-Feb-11 00:33N 50°50' W 001°20'0 0.0
2016-Feb-10 23:09N 50°50' W 001°20'0 0.0
2016-Feb-10 11:21N 50°50' W 001°20'0 0.0
2016-Feb-09 14:32N 50°50' W 001°20'0 0.0
2016-Feb-09 13:32N 50°50' W 001°20'0 0.1
2016-Feb-09 11:33N 50°50' W 001°20'4 4.1
2016-Feb-09 10:33N 50°47' W 001°17'1111.1
2016-Feb-09 09:33N 50°43' W 001°01'5 5.5
2016-Feb-09 08:33N 50°38' W 000°59'2 1.8
2016-Feb-09 07:33N 50°37' W 001°02'0 0.0
2016-Feb-09 06:33N 50°37' W 001°02'0 0.1
2016-Feb-09 05:33N 50°38' W 001°02'0 0.3
2016-Feb-09 04:33N 50°37' W 001°03'0 0.1
2016-Feb-09 03:33N 50°37' W 001°03'0 0.0
2016-Feb-09 02:33N 50°37' W 001°03'0 0.0
2016-Feb-09 01:33N 50°37' W 001°03'0 0.2
2016-Feb-09 00:33N 50°37' W 001°02'0 0.2
2016-Feb-08 23:33N 50°37' W 001°02'0 0.0
2016-Feb-08 22:33N 50°38' W 001°02'0 0.0
2016-Feb-08 21:31N 50°38' W 001°02'0 0.0
2016-Feb-08 20:31N 50°37' W 001°02'0 0.0
2016-Feb-08 19:31N 50°37' W 001°02'0 0.1
2016-Feb-08 18:31N 50°37' W 001°02'0 0.1
2016-Feb-08 17:31N 50°37' W 001°02'0 0.0
2016-Feb-08 16:33N 50°37' W 001°02'0 0.0
2016-Feb-08 15:31N 50°37' W 001°02'0 0.2
2016-Feb-08 14:34N 50°37' W 001°03'0 0.1
2016-Feb-08 13:33N 50°37' W 001°03'0 0.1
2016-Feb-08 12:33N 50°37' W 001°02'0 0.1
2016-Feb-08 11:33N 50°37' W 001°02'0 0.0
2016-Feb-08 10:33N 50°37' W 001°02'0 0.0
2016-Feb-08 09:33N 50°37' W 001°02'0 0.0
2016-Feb-08 08:31N 50°37' W 001°02'0 0.0
2016-Feb-08 07:33N 50°37' W 001°03'0 0.0
2016-Feb-08 06:33N 50°37' W 001°03'0 0.0
2016-Feb-08 05:33N 50°37' W 001°03'0 0.0
2016-Feb-08 04:33N 50°37' W 001°03'0 0.1
2016-Feb-08 03:34N 50°37' W 001°03'0 0.2
2016-Feb-08 02:32N 50°37' W 001°03'0 0.0
2016-Feb-08 01:33N 50°37' W 001°03'0 0.2
2016-Feb-08 00:33N 50°37' W 001°03'0 0.2
2016-Feb-07 23:32N 50°37' W 001°03'0 0.0
2016-Feb-07 22:32N 50°37' W 001°03'0 0.0
2016-Feb-07 21:32N 50°37' W 001°03'0 0.0
2016-Feb-07 20:32N 50°37' W 001°03'0 0.0
2016-Feb-07 19:32N 50°37' W 001°03'0 0.0
2016-Feb-07 18:32N 50°37' W 001°03'0 0.0
2016-Feb-07 17:32N 50°37' W 001°03'0 0.0
2016-Feb-07 16:32N 50°37' W 001°03'0 0.1
2016-Feb-07 15:32N 50°37' W 001°03'0 0.3
2016-Feb-07 14:32N 50°37' W 001°03'0 0.0
2016-Feb-07 13:29N 50°37' W 001°03'0 0.0
2016-Feb-07 12:32N 50°37' W 001°03'0 0.2
2016-Feb-07 11:31N 50°37' W 001°03'0 0.2
2016-Feb-07 10:31N 50°37' W 001°03'0 0.1
2016-Feb-07 09:31N 50°37' W 001°03'0 0.0
2016-Feb-07 08:31N 50°37' W 001°03'0 0.0
2016-Feb-07 07:31N 50°37' W 001°03'0 0.0
2016-Feb-07 06:31N 50°37' W 001°03'0 0.0
2016-Feb-07 05:31N 50°37' W 001°03'0 0.0
2016-Feb-07 04:31N 50°37' W 001°03'0 0.0
2016-Feb-07 03:31N 50°37' W 001°03'0 0.3
2016-Feb-07 02:31N 50°37' W 001°03'0 0.0
2016-Feb-07 01:31N 50°37' W 001°03'0 0.0
2016-Feb-07 00:31N 50°37' W 001°03'0 0.0
2016-Feb-06 23:31N 50°37' W 001°03'0 0.3
2016-Feb-06 22:33N 50°37' W 001°03'0 0.1
2016-Feb-06 21:32N 50°37' W 001°03'0 0.0
2016-Feb-06 20:32N 50°37' W 001°03'0 0.1
2016-Feb-06 19:32N 50°37' W 001°03'0 0.0
2016-Feb-06 18:32N 50°37' W 001°03'0 0.0
2016-Feb-06 17:32N 50°37' W 001°03'0 0.0
2016-Feb-06 16:32N 50°37' W 001°03'0 0.0
2016-Feb-06 15:32N 50°37' W 001°03'0 0.0
2016-Feb-06 14:32N 50°37' W 001°03'0 0.1
2016-Feb-06 13:32N 50°37' W 001°03'0 0.0
2016-Feb-06 12:33N 50°37' W 001°03'0 0.0
2016-Feb-06 11:32N 50°37' W 001°03'0 0.0
2016-Feb-06 10:32N 50°37' W 001°03'0 0.0
2016-Feb-06 09:32N 50°37' W 001°03'0 0.1
2016-Feb-06 08:32N 50°37' W 001°03'0 0.1
2016-Feb-06 07:32N 50°37' W 001°03'0 0.0
2016-Feb-06 06:32N 50°37' W 001°03'0 0.0
2016-Feb-06 05:32N 50°37' W 001°03'0 0.0
2016-Feb-06 04:32N 50°37' W 001°03'0 0.0
2016-Feb-06 03:32N 50°37' W 001°03'0 0.0
2016-Feb-06 02:32N 50°37' W 001°03'0 0.2
2016-Feb-06 01:32N 50°37' W 001°03'0 0.1
2016-Feb-06 00:32N 50°37' W 001°03'0 0.0
2016-Feb-05 23:32N 50°37' W 001°03'0 0.2
2016-Feb-05 22:32N 50°37' W 001°03'0 0.1
2016-Feb-05 21:32N 50°37' W 001°03'0 0.0
2016-Feb-05 20:32N 50°37' W 001°03'0 0.1
2016-Feb-05 19:32N 50°37' W 001°03'0 0.0
2016-Feb-05 18:32N 50°37' W 001°03'0 0.0
2016-Feb-05 17:32N 50°37' W 001°03'0 0.0
2016-Feb-05 16:32N 50°37' W 001°03'0 0.0
2016-Feb-05 15:32N 50°37' W 001°03'0 0.0
2016-Feb-05 14:32N 50°37' W 001°03'0 0.2
2016-Feb-05 13:32N 50°37' W 001°03'0 0.1
2016-Feb-05 12:32N 50°37' W 001°03'0 0.0
2016-Feb-05 11:32N 50°37' W 001°03'0 0.0
2016-Feb-05 10:32N 50°37' W 001°03'0 0.2
2016-Feb-05 09:32N 50°37' W 001°03'0 0.1
2016-Feb-05 08:32N 50°37' W 001°03'0 0.0
2016-Feb-05 07:32N 50°37' W 001°03'0 0.0
2016-Feb-05 06:32N 50°37' W 001°03'0 0.0
2016-Feb-05 05:32N 50°37' W 001°03'0 0.0
2016-Feb-05 04:32N 50°37' W 001°03'0 0.0
2016-Feb-05 03:32N 50°37' W 001°03'0 0.0
2016-Feb-05 02:32N 50°37' W 001°03'0 0.3
2016-Feb-05 01:32N 50°37' W 001°03'0 0.0
2016-Feb-05 00:32N 50°37' W 001°03'0 0.0
2016-Feb-04 23:32N 50°37' W 001°03'0 0.0
2016-Feb-04 22:32N 50°37' W 001°03'0 0.0
2016-Feb-04 21:32N 50°37' W 001°03'0 0.1
2016-Feb-04 20:32N 50°37' W 001°03'0 0.2
2016-Feb-04 19:32N 50°37' W 001°03'0 0.0
2016-Feb-04 18:32N 50°37' W 001°03'0 0.0
2016-Feb-04 17:32N 50°37' W 001°03'0 0.0
2016-Feb-04 16:32N 50°37' W 001°03'0 0.0
2016-Feb-04 15:32N 50°37' W 001°03'0 0.0
2016-Feb-04 14:32N 50°37' W 001°03'0 0.0
2016-Feb-04 13:32N 50°37' W 001°03'0 0.1
2016-Feb-04 12:32N 50°37' W 001°03'0 0.2
2016-Feb-04 11:32N 50°37' W 001°03'0 0.0
2016-Feb-04 10:32N 50°37' W 001°03'0 0.2
2016-Feb-04 09:32N 50°37' W 001°03'0 0.1
2016-Feb-04 08:32N 50°37' W 001°03'0 0.1
2016-Feb-04 07:32N 50°37' W 001°03'0 0.0
2016-Feb-04 06:32N 50°37' W 001°03'0 0.1
2016-Feb-04 05:32N 50°37' W 001°03'0 0.0
2016-Feb-04 04:32N 50°37' W 001°03'0 0.0
2016-Feb-04 03:32N 50°37' W 001°03'0 0.0
2016-Feb-04 02:32N 50°37' W 001°03'0 0.0
2016-Feb-04 01:32N 50°37' W 001°03'0 0.0
2016-Feb-04 00:32N 50°37' W 001°03'0 0.3
2016-Feb-03 23:32N 50°37' W 001°03'0 0.0
2016-Feb-03 22:32N 50°37' W 001°03'0 0.0
2016-Feb-03 21:32N 50°37' W 001°03'0 0.1
2016-Feb-03 20:32N 50°37' W 001°03'0 0.2
2016-Feb-03 19:32N 50°37' W 001°03'0 0.0
2016-Feb-03 18:32N 50°37' W 001°03'0 0.0
2016-Feb-03 17:32N 50°37' W 001°03'0 0.0
2016-Feb-03 16:32N 50°37' W 001°03'0 0.0
2016-Feb-03 15:32N 50°37' W 001°03'0 0.0
2016-Feb-03 14:32N 50°37' W 001°03'0 0.0
2016-Feb-03 13:32N 50°37' W 001°03'0 0.0
2016-Feb-03 12:32N 50°37' W 001°03'0 0.0
2016-Feb-03 11:32N 50°37' W 001°03'0 0.0
2016-Feb-03 10:32N 50°37' W 001°03'0 0.2
2016-Feb-03 09:32N 50°37' W 001°03'0 0.0
2016-Feb-03 08:32N 50°37' W 001°03'0 0.1
2016-Feb-03 07:32N 50°37' W 001°03'0 0.1
2016-Feb-03 06:32N 50°37' W 001°03'0 0.1
2016-Feb-03 05:32N 50°37' W 001°03'0 0.0
2016-Feb-03 04:32N 50°37' W 001°03'0 0.0
2016-Feb-03 03:29N 50°37' W 001°03'0 0.0
2016-Feb-03 02:32N 50°37' W 001°03'0 0.0
2016-Feb-03 01:32N 50°37' W 001°03'0 0.0
2016-Feb-03 00:32N 50°37' W 001°03'0 0.0
2016-Feb-02 23:32N 50°37' W 001°03'0 0.0
2016-Feb-02 22:32N 50°37' W 001°03'0 0.2
2016-Feb-02 21:32N 50°37' W 001°03'0 0.0
2016-Feb-02 20:32N 50°37' W 001°03'0 0.1
2016-Feb-02 19:29N 50°37' W 001°03'0 0.1
2016-Feb-02 18:29N 50°37' W 001°03'0 0.0
2016-Feb-02 17:32N 50°37' W 001°03'0 0.1
2016-Feb-02 16:32N 50°37' W 001°03'0 0.0
2016-Feb-02 15:32N 50°37' W 001°03'0 0.0
2016-Feb-02 14:32N 50°37' W 001°03'0 0.0
2016-Feb-02 13:32N 50°37' W 001°03'0 0.0
2016-Feb-02 12:32N 50°37' W 001°03'0 0.0
2016-Feb-02 11:32N 50°37' W 001°03'0 0.0
2016-Feb-02 10:32N 50°37' W 001°03'0 0.2
2016-Feb-02 09:32N 50°37' W 001°03'0 0.1
2016-Feb-02 08:32N 50°37' W 001°03'0 0.1
2016-Feb-02 07:32N 50°37' W 001°03'0 0.1
2016-Feb-02 06:29N 50°37' W 001°03'0 0.2
2016-Feb-02 05:32N 50°37' W 001°03'0 0.2
2016-Feb-02 04:32N 50°37' W 001°03'0 0.0
2016-Feb-02 03:32N 50°37' W 001°03'0 0.0
2016-Feb-02 02:32N 50°37' W 001°03'0 0.0
2016-Feb-02 01:32N 50°37' W 001°03'0 0.0
2016-Feb-02 00:32N 50°37' W 001°03'0 0.0
2016-Feb-01 23:32N 50°37' W 001°03'0 0.0
2016-Feb-01 22:32N 50°37' W 001°03'0 0.0
2016-Feb-01 21:32N 50°37' W 001°03'0 0.0
2016-Feb-01 20:29N 50°37' W 001°03'0 0.0
2016-Feb-01 19:32N 50°37' W 001°03'0 0.0
2016-Feb-01 18:32N 50°37' W 001°03'0 0.0
2016-Feb-01 17:32N 50°37' W 001°03'0 0.1
2016-Feb-01 16:32N 50°37' W 001°03'0 0.0
2016-Feb-01 15:32N 50°37' W 001°03'0 0.0
2016-Feb-01 14:32N 50°37' W 001°03'0 0.0
2016-Feb-01 13:32N 50°37' W 001°03'0 0.0
2016-Feb-01 12:32N 50°37' W 001°03'0 0.0
2016-Feb-01 11:32N 50°37' W 001°03'0 0.0
2016-Feb-01 10:32N 50°37' W 001°03'0 0.0
2016-Feb-01 09:32N 50°37' W 001°03'0 0.1
2016-Feb-01 08:32N 50°37' W 001°03'  
Track history (hours):
 
Tides and Currents Weather Stations Pressure Air Temp Water Temp Dewpoint Dewpoint Depression Visibility Wind Speed Wind Dir Waves Ship Positions

Mt New Conquest

Last reported at 2016-Feb-11 08:24 UTC. Time now 2016-Feb-11 19:12 UTC.
Position N 50°50' W 001°20'.

Length 228 m; draft 10.7 m.

Type: Tanker. MMSI: 538002089.

Date/timePositionNaut miles runAvg speedWind from/ knotsBaromVisibWave heightAir tempDewpointWater temp
2016-Feb-11 08:24N 50°50' W 001°20'0 0.0
2016-Feb-11 07:12N 50°50' W 001°20'0 0.0
2016-Feb-11 06:33N 50°50' W 001°20'0 0.0
2016-Feb-11 05:33N 50°50' W 001°20'0 0.0
2016-Feb-11 01:21N 50°50' W 001°20'0 0.0
2016-Feb-11 00:33N 50°50' W 001°20'0 0.0
2016-Feb-10 23:09N 50°50' W 001°20'0 0.0
2016-Feb-10 11:21N 50°50' W 001°20'0 0.0
2016-Feb-09 14:32N 50°50' W 001°20'0 0.0
2016-Feb-09 13:32N 50°50' W 001°20'0 0.1
2016-Feb-09 11:33N 50°50' W 001°20'4 4.1
2016-Feb-09 10:33N 50°47' W 001°17'1111.1
2016-Feb-09 09:33N 50°43' W 001°01'5 5.5
2016-Feb-09 08:33N 50°38' W 000°59'2 1.8
2016-Feb-09 07:33N 50°37' W 001°02'0 0.0
2016-Feb-09 06:33N 50°37' W 001°02'0 0.1
2016-Feb-09 05:33N 50°38' W 001°02'0 0.3
2016-Feb-09 04:33N 50°37' W 001°03'0 0.1
2016-Feb-09 03:33N 50°37' W 001°03'0 0.0
2016-Feb-09 02:33N 50°37' W 001°03'0 0.0
2016-Feb-09 01:33N 50°37' W 001°03'0 0.2
2016-Feb-09 00:33N 50°37' W 001°02'0 0.2
2016-Feb-08 23:33N 50°37' W 001°02'0 0.0
2016-Feb-08 22:33N 50°38' W 001°02'0 0.0
2016-Feb-08 21:31N 50°38' W 001°02'0 0.0
2016-Feb-08 20:31N 50°37' W 001°02'0 0.0
2016-Feb-08 19:31N 50°37' W 001°02'0 0.1
2016-Feb-08 18:31N 50°37' W 001°02'0 0.1
2016-Feb-08 17:31N 50°37' W 001°02'0 0.0
2016-Feb-08 16:33N 50°37' W 001°02'0 0.0
2016-Feb-08 15:31N 50°37' W 001°02'0 0.2
2016-Feb-08 14:34N 50°37' W 001°03'0 0.1
2016-Feb-08 13:33N 50°37' W 001°03'0 0.1
2016-Feb-08 12:33N 50°37' W 001°02'0 0.1
2016-Feb-08 11:33N 50°37' W 001°02'0 0.0
2016-Feb-08 10:33N 50°37' W 001°02'0 0.0
2016-Feb-08 09:33N 50°37' W 001°02'0 0.0
2016-Feb-08 08:31N 50°37' W 001°02'0 0.0
2016-Feb-08 07:33N 50°37' W 001°03'0 0.0
2016-Feb-08 06:33N 50°37' W 001°03'0 0.0
2016-Feb-08 05:33N 50°37' W 001°03'0 0.0
2016-Feb-08 04:33N 50°37' W 001°03'0 0.1
2016-Feb-08 03:34N 50°37' W 001°03'0 0.2
2016-Feb-08 02:32N 50°37' W 001°03'0 0.0
2016-Feb-08 01:33N 50°37' W 001°03'0 0.2
2016-Feb-08 00:33N 50°37' W 001°03'0 0.2
2016-Feb-07 23:32N 50°37' W 001°03'0 0.0
2016-Feb-07 22:32N 50°37' W 001°03'0 0.0
2016-Feb-07 21:32N 50°37' W 001°03'0 0.0
2016-Feb-07 20:32N 50°37' W 001°03'0 0.0
2016-Feb-07 19:32N 50°37' W 001°03'0 0.0
2016-Feb-07 18:32N 50°37' W 001°03'0 0.0
2016-Feb-07 17:32N 50°37' W 001°03'0 0.0
2016-Feb-07 16:32N 50°37' W 001°03'0 0.1
2016-Feb-07 15:32N 50°37' W 001°03'0 0.3
2016-Feb-07 14:32N 50°37' W 001°03'0 0.0
2016-Feb-07 13:29N 50°37' W 001°03'0 0.0
2016-Feb-07 12:32N 50°37' W 001°03'0 0.2
2016-Feb-07 11:31N 50°37' W 001°03'0 0.2
2016-Feb-07 10:31N 50°37' W 001°03'0 0.1
2016-Feb-07 09:31N 50°37' W 001°03'0 0.0
2016-Feb-07 08:31N 50°37' W 001°03'0 0.0
2016-Feb-07 07:31N 50°37' W 001°03'0 0.0
2016-Feb-07 06:31N 50°37' W 001°03'0 0.0
2016-Feb-07 05:31N 50°37' W 001°03'0 0.0
2016-Feb-07 04:31N 50°37' W 001°03'0 0.0
2016-Feb-07 03:31N 50°37' W 001°03'0 0.3
2016-Feb-07 02:31N 50°37' W 001°03'0 0.0
2016-Feb-07 01:31N 50°37' W 001°03'0 0.0
2016-Feb-07 00:31N 50°37' W 001°03'0 0.0
2016-Feb-06 23:31N 50°37' W 001°03'0 0.3
2016-Feb-06 22:33N 50°37' W 001°03'0 0.1
2016-Feb-06 21:32N 50°37' W 001°03'0 0.0
2016-Feb-06 20:32N 50°37' W 001°03'0 0.1
2016-Feb-06 19:32N 50°37' W 001°03'0 0.0
2016-Feb-06 18:32N 50°37' W 001°03'0 0.0
2016-Feb-06 17:32N 50°37' W 001°03'0 0.0
2016-Feb-06 16:32N 50°37' W 001°03'0 0.0
2016-Feb-06 15:32N 50°37' W 001°03'0 0.0
2016-Feb-06 14:32N 50°37' W 001°03'0 0.1
2016-Feb-06 13:32N 50°37' W 001°03'0 0.0
2016-Feb-06 12:33N 50°37' W 001°03'0 0.0
2016-Feb-06 11:32N 50°37' W 001°03'0 0.0
2016-Feb-06 10:32N 50°37' W 001°03'0 0.0
2016-Feb-06 09:32N 50°37' W 001°03'0 0.1
2016-Feb-06 08:32N 50°37' W 001°03'0 0.1
2016-Feb-06 07:32N 50°37' W 001°03'0 0.0
2016-Feb-06 06:32N 50°37' W 001°03'0 0.0
2016-Feb-06 05:32N 50°37' W 001°03'0 0.0
2016-Feb-06 04:32N 50°37' W 001°03'0 0.0
2016-Feb-06 03:32N 50°37' W 001°03'0 0.0
2016-Feb-06 02:32N 50°37' W 001°03'0 0.2
2016-Feb-06 01:32N 50°37' W 001°03'0 0.1
2016-Feb-06 00:32N 50°37' W 001°03'0 0.0
2016-Feb-05 23:32N 50°37' W 001°03'0 0.2
2016-Feb-05 22:32N 50°37' W 001°03'0 0.1
2016-Feb-05 21:32N 50°37' W 001°03'0 0.0
2016-Feb-05 20:32N 50°37' W 001°03'0 0.1
2016-Feb-05 19:32N 50°37' W 001°03'0 0.0
2016-Feb-05 18:32N 50°37' W 001°03'0 0.0
2016-Feb-05 17:32N 50°37' W 001°03'0 0.0
2016-Feb-05 16:32N 50°37' W 001°03'0 0.0
2016-Feb-05 15:32N 50°37' W 001°03'0 0.0
2016-Feb-05 14:32N 50°37' W 001°03'0 0.2
2016-Feb-05 13:32N 50°37' W 001°03'0 0.1
2016-Feb-05 12:32N 50°37' W 001°03'0 0.0
2016-Feb-05 11:32N 50°37' W 001°03'0 0.0
2016-Feb-05 10:32N 50°37' W 001°03'0 0.2
2016-Feb-05 09:32N 50°37' W 001°03'0 0.1
2016-Feb-05 08:32N 50°37' W 001°03'0 0.0
2016-Feb-05 07:32N 50°37' W 001°03'0 0.0
2016-Feb-05 06:32N 50°37' W 001°03'0 0.0
2016-Feb-05 05:32N 50°37' W 001°03'0 0.0
2016-Feb-05 04:32N 50°37' W 001°03'0 0.0
2016-Feb-05 03:32N 50°37' W 001°03'0 0.0
2016-Feb-05 02:32N 50°37' W 001°03'0 0.3
2016-Feb-05 01:32N 50°37' W 001°03'0 0.0
2016-Feb-05 00:32N 50°37' W 001°03'0 0.0
2016-Feb-04 23:32N 50°37' W 001°03'0 0.0
2016-Feb-04 22:32N 50°37' W 001°03'0 0.0
2016-Feb-04 21:32N 50°37' W 001°03'0 0.1
2016-Feb-04 20:32N 50°37' W 001°03'0 0.2
2016-Feb-04 19:32N 50°37' W 001°03'0 0.0
2016-Feb-04 18:32N 50°37' W 001°03'0 0.0
2016-Feb-04 17:32N 50°37' W 001°03'0 0.0
2016-Feb-04 16:32N 50°37' W 001°03'0 0.0
2016-Feb-04 15:32N 50°37' W 001°03'0 0.0
2016-Feb-04 14:32N 50°37' W 001°03'0 0.0
2016-Feb-04 13:32N 50°37' W 001°03'0 0.1
2016-Feb-04 12:32N 50°37' W 001°03'0 0.2
2016-Feb-04 11:32N 50°37' W 001°03'0 0.0
2016-Feb-04 10:32N 50°37' W 001°03'0 0.2
2016-Feb-04 09:32N 50°37' W 001°03'0 0.1
2016-Feb-04 08:32N 50°37' W 001°03'0 0.1
2016-Feb-04 07:32N 50°37' W 001°03'0 0.0
2016-Feb-04 06:32N 50°37' W 001°03'0 0.1
2016-Feb-04 05:32N 50°37' W 001°03'0 0.0
2016-Feb-04 04:32N 50°37' W 001°03'0 0.0
2016-Feb-04 03:32N 50°37' W 001°03'0 0.0
2016-Feb-04 02:32N 50°37' W 001°03'0 0.0
2016-Feb-04 01:32N 50°37' W 001°03'0 0.0
2016-Feb-04 00:32N 50°37' W 001°03'0 0.3
2016-Feb-03 23:32N 50°37' W 001°03'0 0.0
2016-Feb-03 22:32N 50°37' W 001°03'0 0.0
2016-Feb-03 21:32N 50°37' W 001°03'0 0.1
2016-Feb-03 20:32N 50°37' W 001°03'0 0.2
2016-Feb-03 19:32N 50°37' W 001°03'0 0.0
2016-Feb-03 18:32N 50°37' W 001°03'0 0.0
2016-Feb-03 17:32N 50°37' W 001°03'0 0.0
2016-Feb-03 16:32N 50°37' W 001°03'0 0.0
2016-Feb-03 15:32N 50°37' W 001°03'0 0.0
2016-Feb-03 14:32N 50°37' W 001°03'0 0.0
2016-Feb-03 13:32N 50°37' W 001°03'0 0.0
2016-Feb-03 12:32N 50°37' W 001°03'0 0.0
2016-Feb-03 11:32N 50°37' W 001°03'0 0.0
2016-Feb-03 10:32N 50°37' W 001°03'0 0.2
2016-Feb-03 09:32N 50°37' W 001°03'0 0.0
2016-Feb-03 08:32N 50°37' W 001°03'0 0.1
2016-Feb-03 07:32N 50°37' W 001°03'0 0.1
2016-Feb-03 06:32N 50°37' W 001°03'0 0.1
2016-Feb-03 05:32N 50°37' W 001°03'0 0.0
2016-Feb-03 04:32N 50°37' W 001°03'0 0.0
2016-Feb-03 03:29N 50°37' W 001°03'0 0.0
2016-Feb-03 02:32N 50°37' W 001°03'0 0.0
2016-Feb-03 01:32N 50°37' W 001°03'0 0.0
2016-Feb-03 00:32N 50°37' W 001°03'0 0.0
2016-Feb-02 23:32N 50°37' W 001°03'0 0.0
2016-Feb-02 22:32N 50°37' W 001°03'0 0.2
2016-Feb-02 21:32N 50°37' W 001°03'0 0.0
2016-Feb-02 20:32N 50°37' W 001°03'0 0.1
2016-Feb-02 19:29N 50°37' W 001°03'0 0.1
2016-Feb-02 18:29N 50°37' W 001°03'0 0.0
2016-Feb-02 17:32N 50°37' W 001°03'0 0.1
2016-Feb-02 16:32N 50°37' W 001°03'0 0.0
2016-Feb-02 15:32N 50°37' W 001°03'0 0.0
2016-Feb-02 14:32N 50°37' W 001°03'0 0.0
2016-Feb-02 13:32N 50°37' W 001°03'0 0.0
2016-Feb-02 12:32N 50°37' W 001°03'0 0.0
2016-Feb-02 11:32N 50°37' W 001°03'0 0.0
2016-Feb-02 10:32N 50°37' W 001°03'0 0.2
2016-Feb-02 09:32N 50°37' W 001°03'0 0.1
2016-Feb-02 08:32N 50°37' W 001°03'0 0.1
2016-Feb-02 07:32N 50°37' W 001°03'0 0.1
2016-Feb-02 06:29N 50°37' W 001°03'0 0.2
2016-Feb-02 05:32N 50°37' W 001°03'0 0.2
2016-Feb-02 04:32N 50°37' W 001°03'0 0.0
2016-Feb-02 03:32N 50°37' W 001°03'0 0.0
2016-Feb-02 02:32N 50°37' W 001°03'0 0.0
2016-Feb-02 01:32N 50°37' W 001°03'0 0.0
2016-Feb-02 00:32N 50°37' W 001°03'0 0.0
2016-Feb-01 23:32N 50°37' W 001°03'0 0.0
2016-Feb-01 22:32N 50°37' W 001°03'0 0.0
2016-Feb-01 21:32N 50°37' W 001°03'0 0.0
2016-Feb-01 20:29N 50°37' W 001°03'0 0.0
2016-Feb-01 19:32N 50°37' W 001°03'0 0.0
2016-Feb-01 18:32N 50°37' W 001°03'0 0.0
2016-Feb-01 17:32N 50°37' W 001°03'0 0.1
2016-Feb-01 16:32N 50°37' W 001°03'0 0.0
2016-Feb-01 15:32N 50°37' W 001°03'0 0.0
2016-Feb-01 14:32N 50°37' W 001°03'0 0.0
2016-Feb-01 13:32N 50°37' W 001°03'0 0.0
2016-Feb-01 12:32N 50°37' W 001°03'0 0.0
2016-Feb-01 11:32N 50°37' W 001°03'0 0.0
2016-Feb-01 10:32N 50°37' W 001°03'0 0.0
2016-Feb-01 09:32N 50°37' W 001°03'0 0.1
2016-Feb-01 08:32N 50°37' W 001°03'  

Dump ship's entire track history